Time;durP1;ratioP1;P1;durP2;ratioP2;P2;SDS_P1;SDS_P2;PMS_P1;PMS_P2;Temp;Humidity;BMP_temperature;BMP_pressure;BME280_temperature;BME280_humidity;BME280_pressure;Samples;Min_cycle;Max_cycle;Signal;HPM_P1;HPM_P2
2022/02/14 00:00:27;;;;;;;325.92;87.85;;;;;;;;;;5120030;28;20201;-74
2022/02/14 00:03:02;;;;;;;323.85;80.40;;;;;;;;;;5100564;28;20237;-75
2022/02/14 00:05:32;;;;;;;314.02;78.28;;;;;;;;;;5100047;28;20212;-74
2022/02/14 00:08:01;;;;;;;321.08;78.00;;;;;;;;;;5118550;28;20201;-74
2022/02/14 00:10:31;;;;;;;311.17;76.72;;;;;;;;;;5119427;28;20220;-74
2022/02/14 00:13:07;;;;;;;315.48;76.88;;;;;;;;;;5120194;28;20188;-74
2022/02/14 00:15:35;;;;;;;327.38;81.07;;;;;;;;;;5120580;28;20585;-74
2022/02/14 00:18:05;;;;;;;319.95;78.10;;;;;;;;;;5119434;28;20200;-74
2022/02/14 00:20:32;;;;;;;328.50;79.57;;;;;;;;;;5120029;28;20197;-75
2022/02/14 00:23:00;;;;;;;330.98;78.22;;;;;;;;;;5120144;28;20667;-75
2022/02/14 00:25:28;;;;;;;335.33;79.05;;;;;;;;;;5119405;28;20205;-75
2022/02/14 00:27:58;;;;;;;317.83;76.38;;;;;;;;;;5119350;28;20205;-75
2022/02/14 00:30:30;;;;;;;322.75;78.30;;;;;;;;;;5118921;28;20220;-75
2022/02/14 00:33:00;;;;;;;335.35;82.65;;;;;;;;;;5119127;28;20197;-75
2022/02/14 00:35:29;;;;;;;321.85;79.50;;;;;;;;;;5119683;28;20201;-75
2022/02/14 00:37:58;;;;;;;337.30;81.30;;;;;;;;;;5118735;28;20287;-75
2022/02/14 00:40:26;;;;;;;319.98;80.72;;;;;;;;;;5099609;28;20578;-74
2022/02/14 00:42:56;;;;;;;335.83;80.88;;;;;;;;;;5111733;28;20205;-75
2022/02/14 00:45:24;;;;;;;326.48;79.25;;;;;;;;;;5118602;28;20196;-75
2022/02/14 00:47:54;;;;;;;321.35;82.07;;;;;;;;;;5118648;28;20205;-76
2022/02/14 00:50:22;;;;;;;326.10;79.20;;;;;;;;;;5118633;28;20332;-75
2022/02/14 00:52:52;;;;;;;339.83;84.13;;;;;;;;;;5119059;28;20537;-75
2022/02/14 00:55:20;;;;;;;332.75;83.47;;;;;;;;;;5119661;28;20458;-75
2022/02/14 00:57:49;;;;;;;330.43;80.87;;;;;;;;;;5118763;28;20236;-75
2022/02/14 01:00:18;;;;;;;345.87;84.10;;;;;;;;;;5118488;28;20458;-74
2022/02/14 01:02:47;;;;;;;336.80;78.40;;;;;;;;;;5119087;28;20457;-75
2022/02/14 01:05:15;;;;;;;337.37;81.97;;;;;;;;;;5119043;28;20550;-75
2022/02/14 01:07:43;;;;;;;328.30;79.55;;;;;;;;;;5119170;28;20490;-75
2022/02/14 01:10:14;;;;;;;322.65;82.43;;;;;;;;;;5118413;28;20316;-75
2022/02/14 01:12:43;;;;;;;324.02;80.25;;;;;;;;;;5118679;28;20307;-75
2022/02/14 01:15:11;;;;;;;317.83;82.07;;;;;;;;;;5118354;28;20261;-75
2022/02/14 01:17:40;;;;;;;327.70;77.47;;;;;;;;;;5118100;28;20562;-75
2022/02/14 01:20:09;;;;;;;329.88;83.88;;;;;;;;;;5118572;28;20497;-75
2022/02/14 01:22:37;;;;;;;320.95;79.45;;;;;;;;;;5118715;28;20212;-75
2022/02/14 01:25:06;;;;;;;322.48;79.00;;;;;;;;;;5118997;28;20212;-75
2022/02/14 01:27:35;;;;;;;321.95;81.20;;;;;;;;;;5117808;28;20197;-74
2022/02/14 01:30:06;;;;;;;325.33;85.88;;;;;;;;;;5118421;28;20212;-75
2022/02/14 01:32:34;;;;;;;330.20;83.28;;;;;;;;;;5117238;28;20208;-75
2022/02/14 01:35:02;;;;;;;324.27;78.93;;;;;;;;;;5117849;28;20204;-75
2022/02/14 01:37:31;;;;;;;316.00;77.63;;;;;;;;;;5119204;28;20589;-75
2022/02/14 01:39:59;;;;;;;336.55;86.40;;;;;;;;;;5117639;28;20197;-74
2022/02/14 01:42:26;;;;;;;331.88;81.25;;;;;;;;;;5118141;28;20209;-75
2022/02/14 01:44:58;;;;;;;331.80;78.27;;;;;;;;;;5118482;28;20205;-75
2022/02/14 01:47:27;;;;;;;331.70;80.47;;;;;;;;;;5118385;28;20468;-75
2022/02/14 01:49:55;;;;;;;331.67;81.80;;;;;;;;;;5118181;28;20739;-75
2022/02/14 01:52:23;;;;;;;330.87;83.07;;;;;;;;;;5117510;28;20462;-75
2022/02/14 01:54:52;;;;;;;330.30;82.00;;;;;;;;;;5117807;28;20465;-75
2022/02/14 01:57:21;;;;;;;335.30;82.80;;;;;;;;;;5118478;28;20459;-75
2022/02/14 01:59:50;;;;;;;333.20;80.55;;;;;;;;;;5118106;28;20503;-75
2022/02/14 02:02:19;;;;;;;332.52;79.72;;;;;;;;;;5117972;28;20716;-75
2022/02/14 02:04:48;;;;;;;337.60;80.70;;;;;;;;;;5117379;28;20205;-74
2022/02/14 02:07:16;;;;;;;327.33;77.17;;;;;;;;;;5117970;28;20463;-75
2022/02/14 02:09:45;;;;;;;322.70;76.47;;;;;;;;;;5117662;28;20439;-74
2022/02/14 02:12:26;;;;;;;331.27;80.23;;;;;;;;;;5118051;28;20493;-75
2022/02/14 02:14:54;;;;;;;328.43;78.97;;;;;;;;;;5117714;28;20450;-75
2022/02/14 02:17:26;;;;;;;328.90;80.13;;;;;;;;;;5118047;28;20461;-74
2022/02/14 02:19:54;;;;;;;333.52;84.18;;;;;;;;;;5117729;28;20450;-75
2022/02/14 02:22:22;;;;;;;333.33;81.38;;;;;;;;;;5117829;28;20215;-74
2022/02/14 02:24:53;;;;;;;336.37;83.77;;;;;;;;;;5117855;28;20201;-74
2022/02/14 02:27:25;;;;;;;274.13;79.63;;;;;;;;;;5117116;28;20883;-75
2022/02/14 02:29:53;;;;;;;240.00;72.90;;;;;;;;;;5116309;28;20443;-75
2022/02/14 02:32:21;;;;;;;270.77;79.67;;;;;;;;;;5118040;28;20831;-75
2022/02/14 02:34:49;;;;;;;249.77;75.83;;;;;;;;;;5117416;28;20947;-75
2022/02/14 02:37:20;;;;;;;334.03;82.70;;;;;;;;;;5117248;28;20455;-75
2022/02/14 02:39:48;;;;;;;296.00;83.50;;;;;;;;;;5117551;28;20457;-75
2022/02/14 02:42:22;;;;;;;339.60;81.60;;;;;;;;;;5116442;28;20512;-74
2022/02/14 02:44:56;;;;;;;334.67;81.47;;;;;;;;;;5116323;28;20486;-74
2022/02/14 02:47:24;;;;;;;337.40;82.37;;;;;;;;;;5116945;28;20454;-75
2022/02/14 02:49:53;;;;;;;330.53;81.47;;;;;;;;;;5116813;28;20450;-74
2022/02/14 02:52:21;;;;;;;332.70;78.30;;;;;;;;;;5117512;28;20482;-75
2022/02/14 02:54:50;;;;;;;338.83;85.70;;;;;;;;;;5116238;28;20847;-75
2022/02/14 02:57:20;;;;;;;330.30;78.50;;;;;;;;;;5116382;28;20862;-75
2022/02/14 02:59:48;;;;;;;338.93;81.97;;;;;;;;;;5116651;28;20460;-75
2022/02/14 03:02:15;;;;;;;346.35;84.60;;;;;;;;;;5116886;28;20855;-75
2022/02/14 03:04:47;;;;;;;334.33;84.87;;;;;;;;;;5116976;28;20295;-75
2022/02/14 03:07:15;;;;;;;334.75;85.93;;;;;;;;;;5117065;28;20470;-75
2022/02/14 03:09:42;;;;;;;339.65;81.82;;;;;;;;;;5116722;28;20493;-75
2022/02/14 03:12:14;;;;;;;340.50;85.23;;;;;;;;;;5116434;28;20307;-74
2022/02/14 03:14:43;;;;;;;336.13;85.17;;;;;;;;;;5117377;28;20459;-74
2022/02/14 03:17:12;;;;;;;335.97;83.00;;;;;;;;;;5116823;28;20938;-74
2022/02/14 03:19:40;;;;;;;332.07;81.97;;;;;;;;;;5111561;28;20444;-74
2022/02/14 03:22:11;;;;;;;340.17;85.13;;;;;;;;;;5110926;28;20527;-73
2022/02/14 03:24:41;;;;;;;343.93;86.20;;;;;;;;;;5117153;28;20533;-76
2022/02/14 03:27:12;;;;;;;336.30;82.37;;;;;;;;;;5116528;28;20862;-73
2022/02/14 03:29:41;;;;;;;348.10;88.83;;;;;;;;;;5116735;28;20847;-74
2022/02/14 03:32:12;;;;;;;337.80;85.07;;;;;;;;;;5116865;28;20921;-75
2022/02/14 03:34:43;;;;;;;340.30;83.80;;;;;;;;;;5113735;28;20463;-75
2022/02/14 03:37:11;;;;;;;343.67;83.80;;;;;;;;;;5108812;28;20855;-74
2022/02/14 03:39:39;;;;;;;337.33;84.83;;;;;;;;;;5116716;28;20461;-74
2022/02/14 03:42:07;;;;;;;327.73;79.63;;;;;;;;;;5112951;28;20901;-74
2022/02/14 03:44:37;;;;;;;335.77;82.00;;;;;;;;;;5110922;28;20209;-74
2022/02/14 03:47:05;;;;;;;326.57;79.13;;;;;;;;;;5102728;28;20202;-75
2022/02/14 03:49:35;;;;;;;336.70;81.27;;;;;;;;;;5113388;28;20482;-75
2022/02/14 03:52:06;;;;;;;340.07;83.70;;;;;;;;;;5120140;28;20517;-75
2022/02/14 03:54:36;;;;;;;330.87;82.90;;;;;;;;;;5120165;28;20511;-75
2022/02/14 03:57:04;;;;;;;308.30;84.40;;;;;;;;;;5120585;28;20541;-76
2022/02/14 03:59:32;;;;;;;346.17;87.40;;;;;;;;;;5111797;28;20446;-74
2022/02/14 04:02:00;;;;;;;339.77;82.73;;;;;;;;;;5119281;28;20509;-76
2022/02/14 04:04:28;;;;;;;330.80;80.57;;;;;;;;;;5119570;28;20863;-75
2022/02/14 04:06:57;;;;;;;340.30;83.60;;;;;;;;;;5117529;28;20543;-76
2022/02/14 04:09:25;;;;;;;328.20;77.43;;;;;;;;;;5109778;28;20884;-75
2022/02/14 04:11:53;;;;;;;330.83;80.85;;;;;;;;;;5119181;28;20771;-75
2022/02/14 04:14:22;;;;;;;321.10;83.35;;;;;;;;;;5119901;28;20216;-75
2022/02/14 04:16:56;;;;;;;317.48;77.97;;;;;;;;;;5119714;28;20197;-75
2022/02/14 04:19:24;;;;;;;329.75;83.38;;;;;;;;;;5119805;28;20464;-75
2022/02/14 04:21:51;;;;;;;327.15;82.63;;;;;;;;;;5119848;28;20204;-75
2022/02/14 04:24:21;;;;;;;329.38;81.00;;;;;;;;;;5119801;28;20205;-74
2022/02/14 04:26:49;;;;;;;331.00;81.55;;;;;;;;;;5119675;28;20485;-75
2022/02/14 04:29:20;;;;;;;319.25;80.25;;;;;;;;;;5119507;28;20223;-75
2022/02/14 04:31:47;;;;;;;306.92;76.68;;;;;;;;;;5119659;28;20225;-74
2022/02/14 04:34:18;;;;;;;324.88;79.25;;;;;;;;;;5120660;28;20201;-75
2022/02/14 04:36:46;;;;;;;315.15;78.38;;;;;;;;;;5119885;28;20201;-75
2022/02/14 04:39:15;;;;;;;314.83;77.90;;;;;;;;;;5119922;28;20219;-74
2022/02/14 04:41:44;;;;;;;312.50;82.07;;;;;;;;;;5119252;28;20235;-75
2022/02/14 04:44:12;;;;;;;310.38;75.00;;;;;;;;;;5118757;28;20201;-74
2022/02/14 04:46:39;;;;;;;303.25;75.10;;;;;;;;;;5119108;28;20205;-74
2022/02/14 04:49:08;;;;;;;322.73;80.38;;;;;;;;;;5118848;28;20193;-74
2022/02/14 04:51:40;;;;;;;323.75;79.18;;;;;;;;;;5118442;28;20228;-75
2022/02/14 04:54:08;;;;;;;313.00;75.57;;;;;;;;;;5118016;28;20597;-74
2022/02/14 04:56:36;;;;;;;327.50;82.30;;;;;;;;;;5119106;28;20466;-75
2022/02/14 04:59:07;;;;;;;318.20;80.00;;;;;;;;;;5118997;28;20574;-75
2022/02/14 05:01:35;;;;;;;325.30;79.47;;;;;;;;;;5118572;28;20299;-74
2022/02/14 05:04:03;;;;;;;310.30;76.60;;;;;;;;;;5118028;28;20546;-74
2022/02/14 05:06:31;;;;;;;319.77;80.25;;;;;;;;;;5117995;28;20201;-75
2022/02/14 05:08:59;;;;;;;323.88;85.38;;;;;;;;;;5118938;28;20205;-75
2022/02/14 05:11:26;;;;;;;318.48;83.20;;;;;;;;;;5117307;28;20628;-75
2022/02/14 05:13:54;;;;;;;309.85;83.82;;;;;;;;;;5118920;28;20205;-75
2022/02/14 05:16:24;;;;;;;336.60;80.57;;;;;;;;;;5118210;28;20211;-75
2022/02/14 05:18:52;;;;;;;320.90;81.30;;;;;;;;;;5117201;28;20501;-75
2022/02/14 05:21:20;;;;;;;309.17;76.68;;;;;;;;;;5117984;28;20284;-74
2022/02/14 05:23:51;;;;;;;311.30;77.03;;;;;;;;;;5118097;28;20200;-75
2022/02/14 05:26:19;;;;;;;311.55;79.75;;;;;;;;;;5117400;28;20546;-75
2022/02/14 05:28:47;;;;;;;328.38;78.50;;;;;;;;;;5118117;28;20213;-74
2022/02/14 05:31:15;;;;;;;322.55;82.45;;;;;;;;;;5117774;28;20200;-74
2022/02/14 05:33:47;;;;;;;325.80;83.47;;;;;;;;;;5118227;28;20212;-74
2022/02/14 05:36:16;;;;;;;311.65;77.03;;;;;;;;;;5117387;28;20632;-74
2022/02/14 05:38:44;;;;;;;313.17;77.30;;;;;;;;;;5117815;28;20211;-74
2022/02/14 05:41:12;;;;;;;326.90;78.55;;;;;;;;;;5117565;28;20244;-75
2022/02/14 05:43:40;;;;;;;314.98;80.20;;;;;;;;;;5116689;28;20197;-76
2022/02/14 05:46:13;;;;;;;340.83;84.20;;;;;;;;;;5104724;28;20216;-75
2022/02/14 05:48:46;;;;;;;331.50;83.30;;;;;;;;;;5116684;28;20537;-74
2022/02/14 05:51:14;;;;;;;335.40;88.00;;;;;;;;;;5116718;28;20471;-74
2022/02/14 05:53:43;;;;;;;334.27;84.60;;;;;;;;;;5116609;28;20865;-74
2022/02/14 05:56:11;;;;;;;328.65;80.88;;;;;;;;;;5116801;28;20467;-75
2022/02/14 05:58:39;;;;;;;346.83;87.60;;;;;;;;;;5116179;28;20201;-75
2022/02/14 06:01:10;;;;;;;329.25;84.85;;;;;;;;;;5116055;28;20531;-75
2022/02/14 06:03:38;;;;;;;340.20;84.23;;;;;;;;;;5115172;28;20283;-75
2022/02/14 06:06:08;;;;;;;333.00;88.33;;;;;;;;;;5114341;28;20469;-75
2022/02/14 06:08:36;;;;;;;343.90;85.93;;;;;;;;;;5115270;28;20447;-74
2022/02/14 06:11:04;;;;;;;345.10;87.60;;;;;;;;;;5115152;28;20465;-74
2022/02/14 06:13:32;;;;;;;348.20;88.40;;;;;;;;;;5115015;28;20567;-74
2022/02/14 06:16:00;;;;;;;346.30;87.60;;;;;;;;;;5115052;28;20463;-74
2022/02/14 06:18:28;;;;;;;339.70;88.80;;;;;;;;;;5115025;28;20462;-74
2022/02/14 06:20:56;;;;;;;346.23;91.00;;;;;;;;;;5114616;28;20451;-75
2022/02/14 06:23:27;;;;;;;344.40;86.67;;;;;;;;;;5113992;28;20554;-75
2022/02/14 06:25:54;;;;;;;347.80;86.40;;;;;;;;;;5114966;28;20458;-75
2022/02/14 06:28:23;;;;;;;340.77;85.53;;;;;;;;;;5113335;28;20451;-74
2022/02/14 06:30:52;;;;;;;335.33;86.93;;;;;;;;;;5114616;28;20224;-74
2022/02/14 06:33:20;;;;;;;339.23;87.55;;;;;;;;;;5114716;28;21116;-74
2022/02/14 06:35:48;;;;;;;346.73;94.37;;;;;;;;;;5113969;28;20197;-74
2022/02/14 06:38:16;;;;;;;350.00;100.50;;;;;;;;;;5112609;28;20860;-74
2022/02/14 06:40:45;;;;;;;342.13;93.32;;;;;;;;;;5113148;28;20197;-74
2022/02/14 06:43:14;;;;;;;344.50;92.50;;;;;;;;;;5113712;28;20201;-74
2022/02/14 06:45:48;;;;;;;364.57;95.17;;;;;;;;;;5113052;28;20193;-74
2022/02/14 06:48:16;;;;;;;351.47;88.53;;;;;;;;;;5113947;28;20464;-74
2022/02/14 06:50:45;;;;;;;330.73;97.90;;;;;;;;;;5111149;28;20465;-74
2022/02/14 06:53:13;;;;;;;317.95;84.93;;;;;;;;;;5115076;28;20231;-75
2022/02/14 06:55:46;;;;;;;330.63;85.63;;;;;;;;;;5115645;28;20205;-74
2022/02/14 06:58:15;;;;;;;333.92;86.32;;;;;;;;;;5116222;28;20673;-74
2022/02/14 07:00:44;;;;;;;328.13;82.25;;;;;;;;;;5114661;28;20205;-74
2022/02/14 07:03:17;;;;;;;318.67;84.32;;;;;;;;;;5113913;28;20197;-74
2022/02/14 07:05:50;;;;;;;332.20;84.72;;;;;;;;;;5115248;28;20258;-74
2022/02/14 07:08:21;;;;;;;320.40;83.68;;;;;;;;;;5115237;28;20577;-73
2022/02/14 07:11:10;;;;;;;327.80;90.75;;;;;;;;;;5116471;28;20477;-73
2022/02/14 07:13:41;;;;;;;345.10;90.90;;;;;;;;;;5113905;28;20229;-75
2022/02/14 07:16:14;;;;;;;346.03;87.50;;;;;;;;;;5116566;28;20438;-75
2022/02/14 07:18:42;;;;;;;339.03;87.77;;;;;;;;;;5119170;28;20451;-74
2022/02/14 07:21:14;;;;;;;339.53;87.60;;;;;;;;;;5119686;28;20461;-75
2022/02/14 07:23:42;;;;;;;341.70;90.93;;;;;;;;;;5118922;28;20456;-75
2022/02/14 07:26:11;;;;;;;341.03;86.53;;;;;;;;;;5118220;28;20451;-75
2022/02/14 07:28:42;;;;;;;344.37;86.40;;;;;;;;;;5117926;28;20459;-75
2022/02/14 07:31:10;;;;;;;347.87;89.90;;;;;;;;;;5114254;28;20438;-76
2022/02/14 07:33:42;;;;;;;348.30;88.63;;;;;;;;;;5118695;28;20540;-76
2022/02/14 07:36:25;;;;;;;343.40;87.00;;;;;;;;;;5116512;28;20458;-76
2022/02/14 07:39:04;;;;;;;330.67;83.67;;;;;;;;;;5116526;28;20474;-74
2022/02/14 07:41:36;;;;;;;339.27;86.17;;;;;;;;;;5117629;28;20451;-74
2022/02/14 07:44:06;;;;;;;345.70;90.97;;;;;;;;;;5115689;28;20462;-74
2022/02/14 07:47:02;;;;;;;339.47;88.30;;;;;;;;;;5117905;28;20453;-74
2022/02/14 07:49:32;;;;;;;346.77;92.23;;;;;;;;;;5115053;28;20757;-73
2022/02/14 07:52:01;;;;;;;343.60;89.60;;;;;;;;;;5113102;28;20451;-75
2022/02/14 07:54:29;;;;;;;345.87;92.93;;;;;;;;;;5116909;28;20451;-74
2022/02/14 07:56:57;;;;;;;347.90;92.10;;;;;;;;;;5118435;28;20553;-75
2022/02/14 07:59:27;;;;;;;348.57;96.53;;;;;;;;;;5118449;28;20450;-75
2022/02/14 08:01:58;;;;;;;343.13;92.10;;;;;;;;;;5117384;28;20470;-75
2022/02/14 08:04:32;;;;;;;366.70;95.17;;;;;;;;;;5118212;28;20455;-75
2022/02/14 08:07:02;;;;;;;354.30;93.57;;;;;;;;;;5112189;28;20478;-74
2022/02/14 08:09:30;;;;;;;363.97;89.93;;;;;;;;;;5117974;28;20855;-74
2022/02/14 08:12:04;;;;;;;355.55;95.55;;;;;;;;;;5117254;28;20447;-74
2022/02/14 08:14:59;;;;;;;374.57;95.77;;;;;;;;;;5118727;28;20288;-74
2022/02/14 08:17:29;;;;;;;347.67;89.57;;;;;;;;;;5113021;27;20871;-75
2022/02/14 08:20:00;;;;;;;360.88;98.03;;;;;;;;;;5117465;28;20454;-74
2022/02/14 08:22:40;;;;;;;370.07;100.47;;;;;;;;;;5117115;28;20204;-74
2022/02/14 08:25:21;;;;;;;345.40;91.10;;;;;;;;;;5117678;28;20447;-74
2022/02/14 08:27:54;;;;;;;352.43;92.80;;;;;;;;;;5116368;28;20450;-75
2022/02/14 08:30:24;;;;;;;363.17;100.87;;;;;;;;;;5115353;28;20855;-74
2022/02/14 08:32:53;;;;;;;347.50;93.03;;;;;;;;;;5116203;28;20573;-74
2022/02/14 08:35:22;;;;;;;354.20;99.40;;;;;;;;;;5115304;28;21042;-76
2022/02/14 08:37:53;;;;;;;350.83;93.07;;;;;;;;;;5116058;28;20523;-75
2022/02/14 08:40:21;;;;;;;345.77;89.77;;;;;;;;;;5115990;28;20544;-76
2022/02/14 08:43:03;;;;;;;363.77;98.30;;;;;;;;;;5118485;28;20459;-75
2022/02/14 08:45:33;;;;;;;350.60;95.17;;;;;;;;;;5114066;27;20466;-75
2022/02/14 08:48:04;;;;;;;353.93;93.87;;;;;;;;;;5116335;28;20922;-75
2022/02/14 08:50:32;;;;;;;359.40;95.87;;;;;;;;;;5115967;28;20457;-75
2022/02/14 08:53:04;;;;;;;363.13;98.70;;;;;;;;;;5119700;28;20474;-74
2022/02/14 08:55:57;;;;;;;364.47;95.57;;;;;;;;;;5120181;28;20443;-74
2022/02/14 08:58:34;;;;;;;371.10;97.80;;;;;;;;;;5117162;28;21037;-77
2022/02/14 09:06:59;;;;;;;373.07;100.80;;;;;;;;;;5093664;28;20470;-77
2022/02/14 09:09:33;;;;;;;368.53;98.57;;;;;;;;;;5116355;28;20447;-76
2022/02/14 09:12:06;;;;;;;365.57;99.27;;;;;;;;;;5114519;28;20452;-76
2022/02/14 09:14:40;;;;;;;372.50;103.63;;;;;;;;;;5116113;28;20446;-74
2022/02/14 09:17:14;;;;;;;375.87;106.10;;;;;;;;;;5118542;28;20503;-73
2022/02/14 09:19:59;;;;;;;392.77;105.83;;;;;;;;;;5119490;28;20500;-76
2022/02/14 09:25:16;;;;;;;375.03;106.53;;;;;;;;;;5106327;28;20441;-76
2022/02/14 09:30:53;;;;;;;373.37;100.77;;;;;;;;;;5101820;28;20708;-76
2022/02/14 09:33:39;;;;;;;389.83;113.77;;;;;;;;;;5118162;28;20482;-77
2022/02/14 09:36:23;;;;;;;382.80;104.37;;;;;;;;;;5117968;28;20519;-75
2022/02/14 09:38:59;;;;;;;380.77;107.63;;;;;;;;;;5114529;28;20446;-76
2022/02/14 09:41:28;;;;;;;384.87;121.67;;;;;;;;;;5116026;28;20535;-75
2022/02/14 09:44:01;;;;;;;374.27;109.83;;;;;;;;;;5117868;28;20468;-76
2022/02/14 09:46:31;;;;;;;383.73;118.33;;;;;;;;;;5116491;28;20451;-76
2022/02/14 09:49:03;;;;;;;384.00;116.23;;;;;;;;;;5113062;28;20439;-74
2022/02/14 09:51:56;;;;;;;382.20;117.03;;;;;;;;;;5117693;28;20799;-73
2022/02/14 09:54:30;;;;;;;351.70;102.65;;;;;;;;;;5096832;28;20491;-75
2022/02/14 09:57:17;;;;;;;;;;;;;;;;;;;;;
2022/02/14 09:59:54;;;;;;;370.63;107.80;;;;;;;;;;5117083;28;20310;-78
2022/02/14 10:02:33;;;;;;;372.60;116.47;;;;;;;;;;5120959;28;20577;-76
2022/02/14 10:05:08;;;;;;;375.77;119.23;;;;;;;;;;5119968;28;20866;-75
2022/02/14 10:07:53;;;;;;;374.43;115.63;;;;;;;;;;5119316;28;20466;-76
2022/02/14 10:10:26;;;;;;;378.43;111.60;;;;;;;;;;5120441;28;21121;-76
2022/02/14 10:12:59;;;;;;;380.20;110.27;;;;;;;;;;5116592;28;20500;-76
2022/02/14 10:15:29;;;;;;;376.93;112.73;;;;;;;;;;5117163;28;20816;-78
2022/02/14 10:18:25;;;;;;;375.67;115.90;;;;;;;;;;5116906;28;20447;-76
2022/02/14 10:21:15;;;;;;;372.47;113.30;;;;;;;;;;5117457;28;20504;-76
2022/02/14 10:24:13;;;;;;;;;;;;;;;;;;;;;
2022/02/14 10:33:37;;;;;;;370.90;108.60;;;;;;;;;;5088242;28;20455;-76
2022/02/14 10:45:21;;;;;;;377.97;118.70;;;;;;;;;;5114088;28;20466;-76
2022/02/14 10:50:39;;;;;;;377.63;120.07;;;;;;;;;;5115849;28;20944;-75
2022/02/14 10:53:25;;;;;;;386.07;125.73;;;;;;;;;;5113542;28;20573;-76
2022/02/14 10:56:14;;;;;;;375.33;119.77;;;;;;;;;;5112513;27;20466;-76
2022/02/14 11:02:10;;;;;;;390.87;130.87;;;;;;;;;;5118215;28;20643;-74
2022/02/14 11:27:17;;;;;;;375.70;119.70;;;;;;;;;;5109453;28;20750;-76
2022/02/14 11:30:14;;;;;;;379.00;128.37;;;;;;;;;;5110180;28;20437;-77
2022/02/14 11:33:29;;;;;;;385.03;134.60;;;;;;;;;;5112640;28;20442;-76
2022/02/14 11:39:33;;;;;;;379.13;121.73;;;;;;;;;;5117280;28;20449;-75
2022/02/14 11:42:09;;;;;;;373.07;117.00;;;;;;;;;;5111554;28;20439;-76
2022/02/14 11:44:44;;;;;;;380.77;126.03;;;;;;;;;;5114371;28;20450;-75
2022/02/14 11:53:42;;;;;;;387.40;136.63;;;;;;;;;;5112081;28;20517;-75
2022/02/14 11:56:28;;;;;;;369.50;121.77;;;;;;;;;;5111150;28;20831;-75
2022/02/14 11:59:26;;;;;;;367.50;115.97;;;;;;;;;;5105073;28;20726;-74
2022/02/14 12:02:33;;;;;;;363.37;110.00;;;;;;;;;;5107791;27;20220;-75
2022/02/14 12:05:29;;;;;;;374.33;126.93;;;;;;;;;;5114907;28;20463;-76
2022/02/14 12:11:20;;;;;;;371.43;126.23;;;;;;;;;;5049422;28;20238;-76
2022/02/14 12:14:00;;;;;;;398.43;136.37;;;;;;;;;;5059650;28;21001;-77
2022/02/14 12:22:52;;;;;;;390.87;135.73;;;;;;;;;;5089650;28;20992;-75
2022/02/14 12:25:25;;;;;;;352.10;130.23;;;;;;;;;;5086668;28;20525;-75
2022/02/14 12:28:01;;;;;;;375.17;131.00;;;;;;;;;;5095149;28;20447;-75
2022/02/14 12:30:33;;;;;;;371.57;117.57;;;;;;;;;;5088448;28;20821;-75
2022/02/14 12:33:08;;;;;;;385.27;136.60;;;;;;;;;;5095175;28;20496;-74
2022/02/14 12:35:49;;;;;;;394.17;141.07;;;;;;;;;;5097116;28;20764;-76
2022/02/14 12:38:18;;;;;;;383.03;135.97;;;;;;;;;;5091253;28;20437;-75
2022/02/14 12:40:49;;;;;;;382.27;133.47;;;;;;;;;;5092382;28;20524;-75
2022/02/14 12:43:31;;;;;;;367.90;117.80;;;;;;;;;;5097161;28;20566;-75
2022/02/14 12:46:19;;;;;;;370.50;117.73;;;;;;;;;;5095743;28;20456;-75
2022/02/14 12:48:48;;;;;;;373.03;122.40;;;;;;;;;;5086224;28;20448;-75
2022/02/14 12:51:36;;;;;;;379.83;130.17;;;;;;;;;;5096166;28;20456;-76
2022/02/14 12:54:11;;;;;;;376.67;122.17;;;;;;;;;;5081555;28;20657;-74
2022/02/14 12:57:00;;;;;;;381.70;126.07;;;;;;;;;;5077713;28;20482;-76
2022/02/14 12:59:50;;;;;;;387.37;126.20;;;;;;;;;;5088485;28;20792;-75
2022/02/14 13:02:34;;;;;;;;;;;;;;;;;;;;;
2022/02/14 13:05:16;;;;;;;378.90;125.57;;;;;;;;;;5087809;28;21115;-75
2022/02/14 13:07:49;;;;;;;384.03;130.87;;;;;;;;;;5093638;28;20457;-74
2022/02/14 13:10:23;;;;;;;369.50;115.63;;;;;;;;;;5077061;28;20460;-76
2022/02/14 13:13:00;;;;;;;388.53;129.73;;;;;;;;;;5097577;28;20443;-74
2022/02/14 13:15:38;;;;;;;387.00;132.17;;;;;;;;;;5091406;28;20479;-75
2022/02/14 13:18:24;;;;;;;388.57;136.83;;;;;;;;;;5091636;28;20558;-76
2022/02/14 13:21:02;;;;;;;391.87;137.17;;;;;;;;;;5088277;28;20458;-76
2022/02/14 13:23:35;;;;;;;389.83;132.33;;;;;;;;;;5095118;28;20550;-73
2022/02/14 13:26:04;;;;;;;391.33;130.57;;;;;;;;;;5095578;28;20452;-74
2022/02/14 13:28:37;;;;;;;399.77;149.77;;;;;;;;;;5098944;28;20455;-74
2022/02/14 13:31:05;;;;;;;391.73;135.27;;;;;;;;;;5096167;28;20562;-73
2022/02/14 13:36:31;;;;;;;377.47;126.63;;;;;;;;;;5087943;28;20869;-74
2022/02/14 13:39:01;;;;;;;374.50;130.70;;;;;;;;;;5087792;28;20814;-74
2022/02/14 13:41:31;;;;;;;378.40;129.97;;;;;;;;;;5093604;28;20459;-74
2022/02/14 13:44:23;;;;;;;378.03;129.50;;;;;;;;;;5093647;28;20831;-76
2022/02/14 13:46:51;;;;;;;367.40;116.20;;;;;;;;;;5083955;28;20451;-72
2022/02/14 13:49:43;;;;;;;374.97;126.13;;;;;;;;;;5092542;28;20440;-73
2022/02/14 13:52:31;;;;;;;375.90;126.23;;;;;;;;;;5090826;28;20459;-73
2022/02/14 13:55:17;;;;;;;383.07;132.30;;;;;;;;;;5089066;28;20471;-76
2022/02/14 13:57:57;;;;;;;374.43;125.70;;;;;;;;;;5086879;28;20737;-74
2022/02/14 14:03:28;;;;;;;375.00;122.07;;;;;;;;;;5085558;28;20927;-75
2022/02/14 14:06:23;;;;;;;373.67;122.27;;;;;;;;;;5086900;28;20477;-76
2022/02/14 14:09:26;;;;;;;380.97;136.43;;;;;;;;;;5090289;28;20432;-76
2022/02/14 14:21:29;;;;;;;360.77;110.13;;;;;;;;;;5111714;28;20511;-76
2022/02/14 14:24:20;;;;;;;374.90;131.17;;;;;;;;;;5115811;28;20451;-75
2022/02/14 14:26:52;;;;;;;388.17;127.73;;;;;;;;;;5113497;28;20716;-75
2022/02/14 14:29:32;;;;;;;394.07;137.87;;;;;;;;;;5117333;28;20465;-75
2022/02/14 14:32:09;;;;;;;381.50;127.43;;;;;;;;;;5115742;28;20458;-75
2022/02/14 14:37:56;;;;;;;388.50;124.37;;;;;;;;;;5102260;28;20454;-75
2022/02/14 14:40:25;;;;;;;395.80;140.50;;;;;;;;;;5115431;28;20851;-73
2022/02/14 14:43:13;;;;;;;388.43;132.17;;;;;;;;;;5114876;28;21156;-74
2022/02/14 14:45:44;;;;;;;377.03;124.63;;;;;;;;;;5116994;28;20537;-74
2022/02/14 14:48:21;;;;;;;382.50;131.10;;;;;;;;;;5115639;28;20875;-75
2022/02/14 14:50:51;;;;;;;373.47;120.23;;;;;;;;;;5115610;28;20923;-74
2022/02/14 14:53:28;;;;;;;378.50;132.97;;;;;;;;;;5115454;28;20457;-76
2022/02/14 14:56:00;;;;;;;395.83;145.13;;;;;;;;;;5114900;28;20913;-75
2022/02/14 14:58:36;;;;;;;385.83;125.33;;;;;;;;;;5116001;28;20808;-76
2022/02/14 15:01:10;;;;;;;396.20;134.67;;;;;;;;;;5115512;28;20850;-74
2022/02/14 15:03:42;;;;;;;391.27;134.07;;;;;;;;;;5114904;28;20450;-75
2022/02/14 15:06:18;;;;;;;382.63;124.30;;;;;;;;;;5115609;28;20755;-75
2022/02/14 15:08:49;;;;;;;387.90;122.70;;;;;;;;;;5115536;28;21056;-74
2022/02/14 15:14:04;;;;;;;393.67;129.70;;;;;;;;;;5108034;28;20456;-75
2022/02/14 15:16:32;;;;;;;396.70;130.03;;;;;;;;;;5115351;28;20451;-75
2022/02/14 15:19:11;;;;;;;385.17;133.13;;;;;;;;;;5114112;28;20547;-74
2022/02/14 15:21:51;;;;;;;374.60;114.30;;;;;;;;;;5114407;28;20470;-75
2022/02/14 15:27:20;;;;;;;375.03;120.53;;;;;;;;;;5107893;28;20455;-76
2022/02/14 15:30:07;;;;;;;373.67;112.33;;;;;;;;;;5114542;28;20524;-75
2022/02/14 15:32:46;;;;;;;383.20;115.67;;;;;;;;;;5115247;28;20465;-75
2022/02/14 15:35:18;;;;;;;375.50;115.27;;;;;;;;;;5116094;28;20816;-75
2022/02/14 15:37:49;;;;;;;372.47;109.70;;;;;;;;;;5117040;28;20439;-74
2022/02/14 15:40:17;;;;;;;382.37;118.27;;;;;;;;;;5117498;28;20463;-74
2022/02/14 15:42:49;;;;;;;380.40;115.63;;;;;;;;;;5119840;28;20439;-75
2022/02/14 15:45:22;;;;;;;372.07;107.90;;;;;;;;;;5115969;28;20748;-75
2022/02/14 15:47:53;;;;;;;377.37;113.00;;;;;;;;;;5119178;28;20570;-75
2022/02/14 15:50:25;;;;;;;373.53;111.73;;;;;;;;;;5117826;28;20491;-75
2022/02/14 15:52:54;;;;;;;374.20;107.83;;;;;;;;;;5118852;28;20851;-74
2022/02/14 15:55:24;;;;;;;370.70;112.77;;;;;;;;;;5117938;28;20483;-75
2022/02/14 15:57:52;;;;;;;368.63;109.77;;;;;;;;;;5117989;28;20458;-74
2022/02/14 16:00:31;;;;;;;368.87;110.37;;;;;;;;;;5105742;28;20455;-74
2022/02/14 16:03:06;;;;;;;362.77;105.10;;;;;;;;;;5113314;28;20454;-74
2022/02/14 16:08:41;;;;;;;368.60;107.87;;;;;;;;;;5117883;28;20595;-74
2022/02/14 16:11:15;;;;;;;356.23;98.20;;;;;;;;;;5120252;28;20711;-73
2022/02/14 16:13:49;;;;;;;358.50;101.47;;;;;;;;;;5119959;28;20450;-73
2022/02/14 16:16:24;;;;;;;374.00;109.53;;;;;;;;;;5117316;28;20776;-73
2022/02/14 16:18:52;;;;;;;360.90;103.30;;;;;;;;;;5117633;28;20458;-74